createdAt,value
2022-09-16T00:00:31.927Z,100.00
2022-09-16T00:02:58.846Z,100.00
2022-09-16T00:05:25.446Z,100.00
2022-09-16T00:07:52.418Z,100.00
2022-09-16T00:10:18.946Z,100.00
2022-09-16T00:12:45.647Z,100.00
2022-09-16T00:15:12.384Z,100.00
2022-09-16T00:17:39.281Z,100.00
2022-09-16T00:20:07.315Z,100.00
2022-09-16T00:22:34.147Z,100.00
2022-09-16T00:25:00.784Z,100.00
2022-09-16T00:27:27.768Z,100.00
2022-09-16T00:29:54.253Z,100.00
2022-09-16T00:32:20.872Z,100.00
2022-09-16T00:34:47.374Z,100.00
2022-09-16T00:37:13.864Z,100.00
2022-09-16T00:39:40.521Z,100.00
2022-09-16T00:42:07.360Z,100.00
2022-09-16T00:44:56.103Z,100.00
2022-09-16T00:47:40.925Z,100.00
2022-09-16T00:50:20.530Z,100.00
2022-09-16T00:52:48.227Z,100.00
2022-09-16T00:55:19.743Z,100.00
2022-09-16T00:57:47.837Z,100.00
2022-09-16T01:00:14.812Z,100.00
2022-09-16T01:02:44.317Z,100.00
2022-09-16T01:05:15.482Z,100.00
2022-09-16T01:07:44.951Z,100.00
2022-09-16T01:10:14.014Z,100.00
2022-09-16T01:12:44.419Z,100.00
2022-09-16T01:15:12.280Z,100.00
2022-09-16T01:17:50.879Z,100.00
2022-09-16T01:20:33.458Z,100.00
2022-09-16T01:23:34.624Z,100.00
2022-09-16T01:26:16.011Z,100.00
2022-09-16T01:29:20.381Z,100.00
2022-09-16T01:31:56.558Z,100.00
2022-09-16T01:34:35.284Z,100.00
2022-09-16T01:37:19.840Z,100.00
2022-09-16T01:39:58.451Z,100.00
2022-09-16T01:43:00.538Z,100.00
2022-09-16T01:45:37.967Z,100.00
2022-09-16T01:48:17.312Z,100.00
2022-09-16T01:50:46.347Z,100.00
2022-09-16T01:53:24.708Z,100.00
2022-09-16T01:56:00.473Z,100.00
2022-09-16T01:58:37.412Z,100.00
2022-09-16T02:01:11.927Z,100.00
2022-09-16T02:03:47.292Z,100.00
2022-09-16T02:06:19.488Z,100.00
2022-09-16T02:08:58.843Z,100.00
2022-09-16T02:11:26.013Z,100.00
2022-09-16T02:14:28.889Z,100.00
2022-09-16T02:17:01.262Z,100.00
2022-09-16T02:19:43.092Z,100.00
2022-09-16T02:22:16.495Z,100.00
2022-09-16T02:24:47.122Z,100.00
2022-09-16T02:27:18.095Z,100.00
2022-09-16T02:29:50.438Z,100.00
2022-09-16T02:32:19.117Z,100.00
2022-09-16T02:34:50.281Z,100.00
2022-09-16T02:37:39.257Z,100.00
2022-09-16T02:40:11.009Z,100.00
2022-09-16T02:42:37.570Z,100.00
2022-09-16T02:45:05.338Z,100.00
2022-09-16T02:47:46.970Z,100.00
2022-09-16T02:50:21.976Z,100.00
2022-09-16T02:52:48.352Z,100.00
2022-09-16T02:55:20.917Z,100.00
2022-09-16T02:57:47.423Z,100.00
2022-09-16T03:00:14.044Z,100.00
2022-09-16T03:02:41.113Z,100.00
2022-09-16T03:05:09.569Z,100.00
2022-09-16T03:07:38.794Z,100.00
2022-09-16T03:10:05.754Z,100.00
2022-09-16T03:12:53.369Z,100.00
2022-09-16T03:15:38.697Z,100.00
2022-09-16T03:18:12.664Z,100.00
2022-09-16T03:21:11.441Z,100.00
2022-09-16T03:23:54.761Z,100.00
2022-09-16T03:26:33.064Z,100.00
2022-09-16T03:29:06.621Z,100.00
2022-09-16T03:31:48.224Z,100.00
2022-09-16T03:34:32.673Z,100.00
2022-09-16T03:37:03.749Z,100.00
2022-09-16T03:39:32.183Z,100.00
2022-09-16T03:42:11.479Z,100.00
2022-09-16T03:44:40.362Z,100.00
2022-09-16T03:47:08.341Z,100.00
2022-09-16T03:49:35.649Z,100.00
2022-09-16T03:52:02.466Z,100.00
2022-09-16T03:54:28.912Z,100.00
2022-09-16T03:56:55.382Z,100.00
2022-09-16T03:59:22.096Z,100.00
2022-09-16T04:01:49.078Z,100.00
2022-09-16T04:04:15.571Z,100.00
2022-09-16T04:06:42.074Z,100.00
2022-09-16T04:09:12.427Z,100.00
2022-09-16T04:11:40.319Z,100.00
2022-09-16T04:14:07.443Z,100.00
2022-09-16T04:16:34.714Z,100.00
2022-09-16T04:19:01.232Z,100.00
2022-09-16T04:21:27.864Z,100.00
2022-09-16T04:23:54.642Z,100.00
2022-09-16T04:26:21.417Z,100.00
2022-09-16T04:28:48.046Z,100.00
2022-09-16T04:31:15.954Z,100.00
2022-09-16T04:33:43.119Z,100.00
2022-09-16T04:36:12.282Z,100.00
2022-09-16T04:38:40.514Z,100.00
2022-09-16T04:41:16.704Z,100.00
2022-09-16T04:43:43.372Z,100.00
2022-09-16T04:46:10.838Z,100.00
2022-09-16T04:48:38.393Z,100.00
2022-09-16T04:51:12.636Z,100.00
2022-09-16T04:53:40.705Z,100.00
2022-09-16T04:56:09.896Z,100.00
2022-09-16T04:58:36.799Z,100.00
2022-09-16T05:01:08.126Z,100.00
2022-09-16T05:03:34.733Z,100.00
2022-09-16T05:06:10.019Z,100.00
2022-09-16T05:08:37.059Z,100.00
2022-09-16T05:11:06.430Z,100.00
2022-09-16T05:13:32.915Z,100.00
2022-09-16T05:16:10.330Z,100.00
2022-09-16T05:18:38.579Z,100.00
2022-09-16T05:21:08.443Z,100.00
2022-09-16T05:23:35.405Z,100.00
2022-09-16T05:26:11.016Z,100.00
2022-09-16T05:28:38.150Z,100.00
2022-09-16T05:31:31.760Z,100.00
2022-09-16T05:34:06.639Z,100.00
2022-09-16T05:36:35.299Z,100.00
2022-09-16T05:41:52.254Z,100.00
2022-09-16T05:44:19.075Z,100.00
2022-09-16T05:46:45.834Z,100.00
2022-09-16T05:49:12.412Z,100.00
2022-09-16T05:51:41.398Z,100.00
2022-09-16T05:54:08.578Z,100.00
2022-09-16T05:56:35.185Z,100.00
2022-09-16T05:59:01.941Z,100.00
2022-09-16T06:01:34.308Z,100.00
2022-09-16T06:04:03.356Z,99.79
2022-09-16T06:06:31.009Z,98.42
2022-09-16T06:09:00.282Z,98.89
2022-09-16T06:11:28.377Z,97.94
2022-09-16T06:13:58.094Z,97.36
2022-09-16T06:16:28.568Z,96.58
2022-09-16T06:18:57.358Z,96.15
2022-09-16T06:21:24.064Z,95.85
2022-09-16T06:23:50.890Z,95.39
2022-09-16T06:26:19.924Z,95.03
2022-09-16T06:28:47.769Z,94.52
2022-09-16T06:31:25.867Z,94.65
2022-09-16T06:33:53.387Z,93.58
2022-09-16T06:36:22.777Z,93.41
2022-09-16T06:38:50.075Z,93.78
2022-09-16T06:41:18.660Z,93.28
2022-09-16T06:43:45.431Z,93.19
2022-09-16T06:46:16.087Z,93.25
2022-09-16T06:48:45.174Z,93.70
2022-09-16T06:51:16.709Z,94.03
2022-09-16T06:53:44.185Z,93.79
2022-09-16T06:56:13.573Z,92.33
2022-09-16T06:58:42.566Z,92.03
2022-09-16T07:01:12.311Z,91.18
2022-09-16T07:03:43.570Z,91.77
2022-09-16T07:06:11.632Z,90.43
2022-09-16T07:08:38.951Z,90.25
2022-09-16T07:11:14.475Z,90.53
2022-09-16T07:13:42.003Z,90.73
2022-09-16T07:16:14.383Z,90.70
2022-09-16T07:18:42.191Z,91.34
2022-09-16T07:21:16.942Z,91.31
2022-09-16T07:23:44.669Z,90.67
2022-09-16T07:26:11.195Z,88.66
2022-09-16T07:28:39.143Z,87.64
2022-09-16T07:31:11.664Z,87.19
2022-09-16T07:33:44.277Z,87.39
2022-09-16T07:36:13.469Z,87.05
2022-09-16T07:38:39.908Z,85.81
2022-09-16T07:41:12.428Z,85.16
2022-09-16T07:43:40.318Z,83.39
2022-09-16T07:46:08.318Z,83.91
2022-09-16T07:48:35.415Z,83.95
2022-09-16T07:51:05.949Z,84.74
2022-09-16T07:53:33.325Z,85.23
2022-09-16T07:56:14.928Z,82.93
2022-09-16T07:58:41.762Z,82.70
2022-09-16T08:01:09.081Z,82.70
2022-09-16T08:03:37.125Z,83.06
2022-09-16T08:06:06.831Z,82.40
2022-09-16T08:08:34.369Z,82.12
2022-09-16T08:11:02.083Z,82.56
2022-09-16T08:13:31.265Z,82.23
2022-09-16T08:16:06.613Z,80.57
2022-09-16T08:18:33.966Z,80.16
2022-09-16T08:21:08.106Z,80.48
2022-09-16T08:23:36.014Z,78.69
2022-09-16T08:26:02.639Z,79.40
2022-09-16T08:28:39.943Z,78.46
2022-09-16T08:31:17.975Z,77.28
2022-09-16T08:33:45.017Z,75.76
2022-09-16T08:36:17.689Z,74.82
2022-09-16T08:38:45.024Z,73.93
2022-09-16T08:41:28.973Z,70.57
2022-09-16T08:44:11.711Z,69.90
2022-09-16T08:46:57.307Z,70.11
2022-09-16T08:49:43.963Z,68.84
2022-09-16T08:52:30.121Z,69.94
2022-09-16T08:55:00.915Z,67.86
2022-09-16T08:57:30.478Z,66.54
2022-09-16T09:00:23.534Z,67.00
2022-09-16T09:02:58.956Z,68.14
2022-09-16T09:05:45.325Z,66.43
2022-09-16T09:08:43.939Z,66.25
2022-09-16T09:11:32.908Z,65.35
2022-09-16T09:14:23.982Z,64.22
2022-09-16T09:17:03.398Z,63.97
2022-09-16T09:20:01.130Z,63.45
2022-09-16T09:22:58.082Z,62.01
2022-09-16T09:25:33.817Z,62.58
2022-09-16T09:28:23.301Z,63.31
2022-09-16T09:30:54.932Z,63.82
2022-09-16T09:33:47.187Z,62.40
2022-09-16T09:36:19.699Z,64.20
2022-09-16T09:38:49.192Z,63.42
2022-09-16T09:41:34.205Z,64.01
2022-09-16T09:44:37.820Z,63.28
2022-09-16T09:47:11.325Z,61.45
2022-09-16T09:49:44.043Z,61.96
2022-09-16T09:52:25.098Z,61.54
2022-09-16T09:54:52.239Z,60.77
2022-09-16T09:57:37.776Z,61.88
2022-09-16T10:00:10.328Z,59.86
2022-09-16T10:02:44.973Z,59.77
2022-09-16T10:05:26.889Z,59.10
2022-09-16T10:07:58.382Z,59.72
2022-09-16T10:10:27.814Z,59.43
2022-09-16T10:12:54.597Z,59.07
2022-09-16T10:15:28.052Z,57.68
2022-09-16T10:17:55.487Z,59.62
2022-09-16T10:20:29.429Z,60.57
2022-09-16T10:23:11.618Z,59.87
2022-09-16T10:25:38.650Z,59.06
2022-09-16T10:28:17.894Z,59.11
2022-09-16T10:30:51.332Z,59.37
2022-09-16T10:33:25.887Z,58.61
2022-09-16T10:36:03.160Z,56.26
2022-09-16T10:38:43.776Z,55.76
2022-09-16T10:41:34.010Z,54.25
2022-09-16T10:44:06.490Z,54.74
2022-09-16T10:46:34.139Z,55.46
2022-09-16T10:49:09.412Z,55.22
2022-09-16T10:51:36.197Z,55.33
2022-09-16T10:54:06.108Z,54.76
2022-09-16T10:56:46.216Z,54.91
2022-09-16T10:59:14.116Z,53.87
2022-09-16T11:01:55.793Z,53.41
2022-09-16T11:04:37.759Z,52.10
2022-09-16T11:07:10.245Z,51.49
2022-09-16T11:10:01.142Z,52.63
2022-09-16T11:13:08.335Z,53.50
2022-09-16T11:15:40.706Z,52.40
2022-09-16T11:18:16.318Z,51.86
2022-09-16T11:20:52.672Z,51.59
2022-09-16T11:23:45.081Z,51.50
2022-09-16T11:26:17.425Z,52.73
2022-09-16T11:29:11.354Z,52.20
2022-09-16T11:31:47.300Z,52.79
2022-09-16T11:34:34.320Z,52.73
2022-09-16T11:37:19.453Z,53.21
2022-09-16T11:40:07.791Z,53.51
2022-09-16T11:42:40.121Z,53.88
2022-09-16T11:45:17.253Z,54.03
2022-09-16T11:47:55.841Z,62.52
2022-09-16T11:50:48.024Z,65.49
2022-09-16T11:53:34.641Z,63.01
2022-09-16T11:56:12.055Z,62.61
2022-09-16T11:58:46.238Z,59.80
2022-09-16T12:01:31.958Z,60.41
2022-09-16T12:04:24.780Z,54.73
2022-09-16T12:07:18.842Z,55.42
2022-09-16T12:10:01.990Z,54.38
2022-09-16T12:12:37.264Z,51.28
2022-09-16T12:15:18.739Z,50.38
2022-09-16T12:18:11.947Z,49.73
2022-09-16T12:20:43.683Z,48.93
2022-09-16T12:23:26.533Z,47.22
2022-09-16T12:26:14.125Z,47.57
2022-09-16T12:29:02.144Z,48.24
2022-09-16T12:31:45.896Z,46.59
2022-09-16T12:34:22.656Z,47.26
2022-09-16T12:36:57.973Z,57.40
2022-09-16T12:39:24.560Z,74.53
2022-09-16T12:42:09.724Z,76.10
2022-09-16T12:45:05.716Z,76.26
2022-09-16T12:47:38.080Z,76.77
2022-09-16T12:50:23.287Z,72.38
2022-09-16T12:53:19.886Z,79.82
2022-09-16T12:56:27.090Z,86.53
2022-09-16T12:59:13.663Z,84.53
2022-09-16T13:01:45.157Z,85.54
2022-09-16T13:04:21.060Z,82.59
2022-09-16T13:06:55.923Z,82.75
2022-09-16T13:09:41.567Z,76.84
2022-09-16T13:15:22.158Z,74.92
2022-09-16T13:17:52.739Z,68.96
2022-09-16T13:20:24.693Z,66.21
2022-09-16T13:23:02.674Z,65.37
2022-09-16T13:25:59.040Z,63.57
2022-09-16T13:28:39.243Z,61.29
2022-09-16T13:31:15.187Z,60.23
2022-09-16T13:34:01.574Z,63.04
2022-09-16T13:36:29.540Z,73.62
2022-09-16T13:38:58.972Z,85.73
2022-09-16T13:41:34.596Z,89.08
2022-09-16T13:44:02.177Z,92.74
2022-09-16T13:46:35.378Z,91.25
2022-09-16T13:49:11.018Z,91.56
2022-09-16T13:51:48.092Z,95.01
2022-09-16T13:54:27.949Z,98.59
2022-09-16T13:57:12.897Z,100.00
2022-09-16T14:00:02.498Z,100.00
2022-09-16T14:02:55.441Z,100.00
2022-09-16T14:05:52.804Z,100.00
2022-09-16T14:08:45.530Z,97.21
2022-09-16T14:11:17.172Z,94.08
2022-09-16T14:14:04.764Z,89.43
2022-09-16T14:16:34.312Z,89.86
2022-09-16T14:19:05.830Z,84.54
2022-09-16T14:21:32.871Z,82.33
2022-09-16T14:24:16.248Z,84.35
2022-09-16T14:26:57.768Z,82.87
2022-09-16T14:29:25.619Z,80.42
2022-09-16T14:31:55.461Z,74.92
2022-09-16T14:34:28.577Z,75.95
2022-09-16T14:36:55.274Z,73.85
2022-09-16T14:39:25.379Z,72.23
2022-09-16T14:41:58.597Z,71.03
2022-09-16T14:44:34.883Z,70.12
2022-09-16T14:47:10.522Z,68.93
2022-09-16T14:49:49.845Z,67.72
2022-09-16T14:52:22.407Z,66.84
2022-09-16T14:54:50.925Z,65.36
2022-09-16T14:57:24.370Z,65.89
2022-09-16T14:59:54.291Z,64.59
2022-09-16T15:02:27.185Z,64.66
2022-09-16T15:04:58.108Z,64.71
2022-09-16T15:07:36.093Z,63.82
2022-09-16T15:10:22.494Z,61.96
2022-09-16T15:12:56.675Z,61.58
2022-09-16T15:15:29.686Z,59.70
2022-09-16T15:18:15.528Z,60.10
2022-09-16T15:20:42.728Z,59.28
2022-09-16T15:23:22.182Z,58.67
2022-09-16T15:25:56.223Z,60.05
2022-09-16T15:28:22.749Z,59.09
2022-09-16T15:30:53.908Z,59.17
2022-09-16T15:33:25.416Z,58.49
2022-09-16T15:35:52.617Z,59.09
2022-09-16T15:38:23.086Z,59.54
2022-09-16T15:41:01.530Z,59.91
2022-09-16T15:43:29.958Z,58.86
2022-09-16T15:46:09.072Z,59.45
2022-09-16T15:48:44.340Z,59.43
2022-09-16T15:51:20.560Z,59.30
2022-09-16T15:53:49.174Z,58.63
2022-09-16T15:56:25.275Z,59.22
2022-09-16T15:58:58.033Z,59.18
2022-09-16T16:01:30.603Z,58.48
2022-09-16T16:03:59.418Z,58.26
2022-09-16T16:06:52.164Z,57.61
2022-09-16T16:09:27.857Z,59.17
2022-09-16T16:11:57.768Z,58.89
2022-09-16T16:14:32.419Z,59.31
2022-09-16T16:17:13.143Z,59.85
2022-09-16T16:19:42.138Z,61.21
2022-09-16T16:22:09.661Z,61.73
2022-09-16T16:24:37.004Z,62.68
2022-09-16T16:27:04.674Z,63.05
2022-09-16T16:29:31.307Z,63.82
2022-09-16T16:32:01.644Z,64.38
2022-09-16T16:34:31.093Z,64.84
2022-09-16T16:36:57.653Z,65.29
2022-09-16T16:39:24.530Z,65.81
2022-09-16T16:41:54.148Z,65.78
2022-09-16T16:44:22.800Z,66.71
2022-09-16T16:46:51.399Z,66.55
2022-09-16T16:49:18.496Z,66.85
2022-09-16T16:51:45.323Z,67.54
2022-09-16T16:54:13.273Z,67.87
2022-09-16T16:56:40.236Z,67.67
2022-09-16T16:59:08.373Z,67.30
2022-09-16T17:01:35.808Z,67.91
2022-09-16T17:04:05.307Z,67.88
2022-09-16T17:06:32.864Z,68.52
2022-09-16T17:08:59.454Z,68.34
2022-09-16T17:11:26.599Z,68.27
2022-09-16T17:13:58.641Z,68.38
2022-09-16T17:16:25.979Z,67.77
2022-09-16T17:18:52.889Z,68.34
2022-09-16T17:21:22.660Z,68.09
2022-09-16T17:23:49.154Z,67.63
2022-09-16T17:26:16.177Z,67.48
2022-09-16T17:28:44.758Z,67.67
2022-09-16T17:31:14.825Z,67.26
2022-09-16T17:33:41.769Z,67.86
2022-09-16T17:36:09.590Z,67.81
2022-09-16T17:38:36.358Z,67.94
2022-09-16T17:41:05.625Z,68.56
2022-09-16T17:43:32.818Z,68.30
2022-09-16T17:46:06.942Z,69.31
2022-09-16T17:48:34.310Z,69.17
2022-09-16T17:51:00.848Z,69.97
2022-09-16T17:53:27.310Z,70.37
2022-09-16T17:56:11.323Z,70.99
2022-09-16T17:58:39.520Z,71.55
2022-09-16T18:01:12.190Z,72.33
2022-09-16T18:03:40.891Z,72.33
2022-09-16T18:06:20.850Z,72.50
2022-09-16T18:08:48.365Z,72.96
2022-09-16T18:11:16.735Z,73.72
2022-09-16T18:13:46.306Z,73.54
2022-09-16T18:16:15.581Z,73.63
2022-09-16T18:18:43.816Z,73.90
2022-09-16T18:21:14.425Z,73.70
2022-09-16T18:23:42.000Z,73.65
2022-09-16T18:26:11.265Z,73.70
2022-09-16T18:29:05.391Z,74.24
2022-09-16T18:31:25.929Z,75.58
2022-09-16T18:33:53.878Z,77.01
2022-09-16T18:36:25.428Z,77.47
2022-09-16T18:38:53.894Z,77.77
2022-09-16T18:41:22.877Z,78.35
2022-09-16T18:43:55.092Z,78.61
2022-09-16T18:46:26.764Z,78.87
2022-09-16T18:48:55.300Z,78.47
2022-09-16T18:51:31.101Z,77.77
2022-09-16T18:54:00.747Z,78.17
2022-09-16T18:56:29.537Z,77.87
2022-09-16T18:59:26.134Z,77.32
2022-09-16T19:01:54.147Z,77.38
2022-09-16T19:04:23.608Z,76.93
2022-09-16T19:06:52.660Z,76.60
2022-09-16T19:09:21.491Z,76.86
2022-09-16T19:11:49.369Z,77.57
2022-09-16T19:14:16.153Z,77.66
2022-09-16T19:16:44.670Z,78.21
2022-09-16T19:19:14.412Z,78.53
2022-09-16T19:21:42.391Z,78.75
2022-09-16T19:24:14.123Z,78.67
2022-09-16T19:26:41.831Z,78.82
2022-09-16T19:29:08.755Z,78.84
2022-09-16T19:31:37.642Z,79.10
2022-09-16T19:34:05.871Z,78.92
2022-09-16T19:36:33.965Z,78.96
2022-09-16T19:39:01.211Z,79.07
2022-09-16T19:41:30.568Z,79.42
2022-09-16T19:43:59.557Z,79.60
2022-09-16T19:46:27.458Z,80.07
2022-09-16T19:48:55.326Z,80.72
2022-09-16T19:51:23.931Z,81.06
2022-09-16T19:53:52.519Z,81.66
2022-09-16T19:56:24.952Z,81.92
2022-09-16T19:58:52.935Z,83.03
2022-09-16T20:01:25.412Z,83.66
2022-09-16T20:03:52.941Z,83.79
2022-09-16T20:06:21.882Z,84.48
2022-09-16T20:09:01.085Z,84.55
2022-09-16T20:11:31.469Z,84.77
2022-09-16T20:14:04.198Z,85.25
2022-09-16T20:16:37.611Z,85.77
2022-09-16T20:19:06.497Z,85.91
2022-09-16T20:21:35.257Z,86.08
2022-09-16T20:24:05.697Z,86.94
2022-09-16T20:26:32.870Z,87.43
2022-09-16T20:29:00.408Z,87.32
2022-09-16T20:31:33.080Z,87.60
2022-09-16T20:34:00.383Z,87.97
2022-09-16T20:36:31.939Z,89.21
2022-09-16T20:38:59.820Z,89.37
2022-09-16T20:41:29.358Z,89.41
2022-09-16T20:43:56.501Z,89.76
2022-09-16T20:46:25.801Z,90.13
2022-09-16T20:48:54.533Z,90.77
2022-09-16T20:51:23.265Z,90.90
2022-09-16T20:53:55.044Z,91.35
2022-09-16T20:56:22.311Z,91.82
2022-09-16T20:58:48.956Z,91.61
2022-09-16T21:01:18.944Z,92.02
2022-09-16T21:03:45.839Z,92.05
2022-09-16T21:06:15.714Z,91.94
2022-09-16T21:08:43.141Z,92.22
2022-09-16T21:11:12.511Z,92.49
2022-09-16T21:13:45.175Z,92.79
2022-09-16T21:16:14.112Z,92.91
2022-09-16T21:18:41.943Z,93.33
2022-09-16T21:21:11.328Z,92.97
2022-09-16T21:23:38.263Z,93.56
2022-09-16T21:26:22.827Z,93.63
2022-09-16T21:28:58.603Z,93.76
2022-09-16T21:31:28.269Z,93.64
2022-09-16T21:33:55.422Z,93.92
2022-09-16T21:36:23.345Z,93.88
2022-09-16T21:38:50.134Z,93.75
2022-09-16T21:41:18.909Z,94.05
2022-09-16T21:43:49.562Z,93.91
2022-09-16T21:46:22.552Z,94.49
2022-09-16T21:48:50.274Z,94.53
2022-09-16T21:51:19.284Z,94.97
2022-09-16T21:53:47.078Z,95.09
2022-09-16T21:56:20.610Z,95.13
2022-09-16T21:58:48.204Z,95.58
2022-09-16T22:01:18.068Z,95.55
2022-09-16T22:03:47.479Z,95.34
2022-09-16T22:06:16.153Z,95.81
2022-09-16T22:08:48.581Z,95.86
2022-09-16T22:11:17.404Z,96.21
2022-09-16T22:13:43.965Z,96.38
2022-09-16T22:16:17.396Z,96.83
2022-09-16T22:18:44.746Z,97.62
2022-09-16T22:21:14.403Z,98.15
2022-09-16T22:23:41.392Z,98.34
2022-09-16T22:26:11.439Z,98.68
2022-09-16T22:28:38.302Z,99.84
2022-09-16T22:31:10.067Z,100.00
2022-09-16T22:33:38.088Z,100.00
2022-09-16T22:36:06.710Z,100.00
2022-09-16T22:38:33.388Z,100.00
2022-09-16T22:41:08.436Z,100.00
2022-09-16T22:43:40.147Z,100.00
2022-09-16T22:46:09.532Z,100.00
2022-09-16T22:48:36.718Z,100.00
2022-09-16T22:51:04.258Z,100.00
2022-09-16T22:53:31.818Z,100.00
2022-09-16T22:56:04.760Z,100.00
2022-09-16T22:58:32.003Z,100.00
2022-09-16T23:01:09.774Z,100.00
2022-09-16T23:03:36.650Z,100.00
2022-09-16T23:06:08.929Z,100.00
2022-09-16T23:08:37.574Z,100.00
2022-09-16T23:11:05.927Z,100.00
2022-09-16T23:13:33.864Z,100.00
2022-09-16T23:16:02.287Z,100.00
2022-09-16T23:18:30.555Z,100.00
2022-09-16T23:21:08.792Z,100.00
2022-09-16T23:23:40.012Z,100.00
2022-09-16T23:26:18.954Z,100.00
2022-09-16T23:28:46.211Z,100.00
2022-09-16T23:31:15.461Z,100.00
2022-09-16T23:33:43.008Z,100.00
2022-09-16T23:36:11.454Z,100.00
2022-09-16T23:38:39.502Z,100.00
2022-09-16T23:41:10.748Z,100.00
2022-09-16T23:43:38.904Z,100.00
2022-09-16T23:46:05.841Z,100.00
2022-09-16T23:48:32.821Z,100.00
2022-09-16T23:50:59.827Z,100.00
2022-09-16T23:53:28.359Z,100.00
2022-09-16T23:55:55.548Z,100.00
2022-09-16T23:58:22.069Z,100.00
